sensor_id;sensor_type;location;lat;lon;timestamp;temperature;humidity
21417;DHT22;10869;52.238;10.716;2023-02-02T00:00:03;4.10;99.90
21417;DHT22;10869;52.238;10.716;2023-02-02T04:15:33;3.70;99.90
21417;DHT22;10869;52.238;10.716;2023-02-02T04:17:58;3.60;99.90
21417;DHT22;10869;52.238;10.716;2023-02-02T04:20:24;3.60;99.90
21417;DHT22;10869;52.238;10.716;2023-02-02T04:22:50;3.60;99.90
21417;DHT22;10869;52.238;10.716;2023-02-02T04:25:16;3.50;99.90
21417;DHT22;10869;52.238;10.716;2023-02-02T04:27:42;3.50;99.90
21417;DHT22;10869;52.238;10.716;2023-02-02T04:30:08;3.60;99.90
21417;DHT22;10869;52.238;10.716;2023-02-02T04:32:34;3.60;99.90
21417;DHT22;10869;52.238;10.716;2023-02-02T04:35:00;3.50;99.90
21417;DHT22;10869;52.238;10.716;2023-02-02T04:37:26;3.50;99.90
21417;DHT22;10869;52.238;10.716;2023-02-02T04:39:51;3.50;99.90
21417;DHT22;10869;52.238;10.716;2023-02-02T04:42:19;3.60;99.90
21417;DHT22;10869;52.238;10.716;2023-02-02T04:44:45;3.60;99.90
21417;DHT22;10869;52.238;10.716;2023-02-02T04:47:11;3.60;99.90
21417;DHT22;10869;52.238;10.716;2023-02-02T04:49:37;3.60;99.90
21417;DHT22;10869;52.238;10.716;2023-02-02T04:52:03;3.60;99.90
21417;DHT22;10869;52.238;10.716;2023-02-02T04:54:29;3.60;99.90
21417;DHT22;10869;52.238;10.716;2023-02-02T04:56:55;3.70;99.90
21417;DHT22;10869;52.238;10.716;2023-02-02T04:59:20;3.70;99.90
21417;DHT22;10869;52.238;10.716;2023-02-02T05:01:46;3.70;99.90
21417;DHT22;10869;52.238;10.716;2023-02-02T05:04:12;3.70;99.90
21417;DHT22;10869;52.238;10.716;2023-02-02T05:06:38;3.80;99.90
21417;DHT22;10869;52.238;10.716;2023-02-02T05:09:04;3.70;99.90
21417;DHT22;10869;52.238;10.716;2023-02-02T05:11:30;3.80;99.90
21417;DHT22;10869;52.238;10.716;2023-02-02T05:13:55;3.80;99.90
21417;DHT22;10869;52.238;10.716;2023-02-02T05:16:22;3.80;99.90
21417;DHT22;10869;52.238;10.716;2023-02-02T05:18:52;3.90;99.90
21417;DHT22;10869;52.238;10.716;2023-02-02T05:21:19;3.90;99.90
21417;DHT22;10869;52.238;10.716;2023-02-02T05:23:45;3.90;99.90
21417;DHT22;10869;52.238;10.716;2023-02-02T05:26:16;3.90;99.90
21417;DHT22;10869;52.238;10.716;2023-02-02T05:28:43;3.90;99.90
21417;DHT22;10869;52.238;10.716;2023-02-02T05:31:09;3.90;99.90
21417;DHT22;10869;52.238;10.716;2023-02-02T05:33:35;3.90;99.90
21417;DHT22;10869;52.238;10.716;2023-02-02T05:36:00;3.90;99.90
21417;DHT22;10869;52.238;10.716;2023-02-02T05:41:48;4.00;99.90
21417;DHT22;10869;52.238;10.716;2023-02-02T05:44:14;4.00;99.90
21417;DHT22;10869;52.238;10.716;2023-02-02T05:46:40;3.90;99.90
21417;DHT22;10869;52.238;10.716;2023-02-02T05:49:09;3.90;99.90
21417;DHT22;10869;52.238;10.716;2023-02-02T05:51:41;3.90;99.90
21417;DHT22;10869;52.238;10.716;2023-02-02T05:54:08;3.90;99.90
21417;DHT22;10869;52.238;10.716;2023-02-02T05:56:33;3.90;99.90
21417;DHT22;10869;52.238;10.716;2023-02-02T05:58:59;3.90;99.90
21417;DHT22;10869;52.238;10.716;2023-02-02T06:01:25;3.90;99.90
21417;DHT22;10869;52.238;10.716;2023-02-02T06:03:57;3.90;99.90
21417;DHT22;10869;52.238;10.716;2023-02-02T06:06:24;3.90;99.90
21417;DHT22;10869;52.238;10.716;2023-02-02T06:08:53;3.90;99.90
21417;DHT22;10869;52.238;10.716;2023-02-02T06:11:19;3.90;99.90
21417;DHT22;10869;52.238;10.716;2023-02-02T06:13:45;3.80;99.90
21417;DHT22;10869;52.238;10.716;2023-02-02T06:16:11;3.80;99.90
21417;DHT22;10869;52.238;10.716;2023-02-02T06:18:37;3.80;99.90
21417;DHT22;10869;52.238;10.716;2023-02-02T06:21:04;3.80;99.90
21417;DHT22;10869;52.238;10.716;2023-02-02T06:23:32;3.80;99.90
21417;DHT22;10869;52.238;10.716;2023-02-02T06:25:59;3.80;99.90
21417;DHT22;10869;52.238;10.716;2023-02-02T06:28:31;3.80;99.90
21417;DHT22;10869;52.238;10.716;2023-02-02T06:31:05;3.80;99.90
21417;DHT22;10869;52.238;10.716;2023-02-02T06:33:33;3.80;99.90
21417;DHT22;10869;52.238;10.716;2023-02-02T06:36:02;3.80;99.90
21417;DHT22;10869;52.238;10.716;2023-02-02T06:38:28;3.80;99.90
21417;DHT22;10869;52.238;10.716;2023-02-02T06:40:57;3.80;99.90
21417;DHT22;10869;52.238;10.716;2023-02-02T06:43:23;3.80;99.90
21417;DHT22;10869;52.238;10.716;2023-02-02T06:45:49;3.80;99.90
21417;DHT22;10869;52.238;10.716;2023-02-02T06:48:21;3.80;99.90
21417;DHT22;10869;52.238;10.716;2023-02-02T06:50:47;3.80;99.90
21417;DHT22;10869;52.238;10.716;2023-02-02T06:53:13;3.80;99.90
21417;DHT22;10869;52.238;10.716;2023-02-02T06:55:38;3.70;99.90
21417;DHT22;10869;52.238;10.716;2023-02-02T06:58:04;3.80;99.90
21417;DHT22;10869;52.238;10.716;2023-02-02T07:00:30;3.70;99.90
21417;DHT22;10869;52.238;10.716;2023-02-02T07:06:21;3.70;99.90
21417;DHT22;10869;52.238;10.716;2023-02-02T07:08:47;3.70;99.90
21417;DHT22;10869;52.238;10.716;2023-02-02T07:11:15;3.70;99.90
21417;DHT22;10869;52.238;10.716;2023-02-02T07:13:41;3.80;99.90
21417;DHT22;10869;52.238;10.716;2023-02-02T07:16:06;3.80;99.90
21417;DHT22;10869;52.238;10.716;2023-02-02T07:18:34;3.80;99.90
21417;DHT22;10869;52.238;10.716;2023-02-02T07:21:01;3.80;99.90
21417;DHT22;10869;52.238;10.716;2023-02-02T07:23:31;3.80;99.90
21417;DHT22;10869;52.238;10.716;2023-02-02T07:26:05;3.80;99.90
21417;DHT22;10869;52.238;10.716;2023-02-02T07:28:32;3.90;99.90
21417;DHT22;10869;52.238;10.716;2023-02-02T07:30:58;3.90;99.90
21417;DHT22;10869;52.238;10.716;2023-02-02T07:33:25;3.80;99.90
21417;DHT22;10869;52.238;10.716;2023-02-02T07:35:51;3.90;99.90
21417;DHT22;10869;52.238;10.716;2023-02-02T07:38:17;3.90;99.90
21417;DHT22;10869;52.238;10.716;2023-02-02T07:44:05;3.90;99.90
21417;DHT22;10869;52.238;10.716;2023-02-02T07:46:31;3.90;99.90
21417;DHT22;10869;52.238;10.716;2023-02-02T07:48:57;3.90;99.90
21417;DHT22;10869;52.238;10.716;2023-02-02T07:51:24;3.90;99.90
21417;DHT22;10869;52.238;10.716;2023-02-02T07:57:12;4.00;99.90
21417;DHT22;10869;52.238;10.716;2023-02-02T08:03:00;4.00;99.90
21417;DHT22;10869;52.238;10.716;2023-02-02T08:05:26;4.10;99.90
21417;DHT22;10869;52.238;10.716;2023-02-02T08:07:52;4.10;99.90
21417;DHT22;10869;52.238;10.716;2023-02-02T08:10:18;4.10;99.90
21417;DHT22;10869;52.238;10.716;2023-02-02T08:12:44;4.10;99.90
21417;DHT22;10869;52.238;10.716;2023-02-02T08:15:10;4.20;99.90
21417;DHT22;10869;52.238;10.716;2023-02-02T08:17:36;4.20;99.90
21417;DHT22;10869;52.238;10.716;2023-02-02T08:20:02;4.30;99.90
21417;DHT22;10869;52.238;10.716;2023-02-02T08:25:50;4.30;99.90
21417;DHT22;10869;52.238;10.716;2023-02-02T08:28:17;4.40;99.90
21417;DHT22;10869;52.238;10.716;2023-02-02T08:30:43;4.40;99.90
21417;DHT22;10869;52.238;10.716;2023-02-02T08:33:09;4.50;99.90
21417;DHT22;10869;52.238;10.716;2023-02-02T08:35:42;4.60;99.90
21417;DHT22;10869;52.238;10.716;2023-02-02T08:38:09;4.60;99.90
21417;DHT22;10869;52.238;10.716;2023-02-02T08:40:34;4.70;99.90
21417;DHT22;10869;52.238;10.716;2023-02-02T08:43:00;4.70;99.90
21417;DHT22;10869;52.238;10.716;2023-02-02T08:45:28;4.70;99.90
21417;DHT22;10869;52.238;10.716;2023-02-02T08:47:54;4.80;99.90
21417;DHT22;10869;52.238;10.716;2023-02-02T08:50:19;4.80;99.90
21417;DHT22;10869;52.238;10.716;2023-02-02T08:52:45;4.90;99.90
21417;DHT22;10869;52.238;10.716;2023-02-02T08:55:11;4.90;99.90
21417;DHT22;10869;52.238;10.716;2023-02-02T08:57:36;4.90;99.90
21417;DHT22;10869;52.238;10.716;2023-02-02T09:00:04;5.00;99.90
21417;DHT22;10869;52.238;10.716;2023-02-02T09:02:31;5.10;99.90
21417;DHT22;10869;52.238;10.716;2023-02-02T09:04:57;5.10;99.90
21417;DHT22;10869;52.238;10.716;2023-02-02T09:07:22;5.10;99.90
21417;DHT22;10869;52.238;10.716;2023-02-02T09:09:48;5.10;99.90
21417;DHT22;10869;52.238;10.716;2023-02-02T09:12:16;5.10;99.90
21417;DHT22;10869;52.238;10.716;2023-02-02T09:14:41;5.10;99.90
21417;DHT22;10869;52.238;10.716;2023-02-02T09:17:07;5.10;99.90
21417;DHT22;10869;52.238;10.716;2023-02-02T09:19:33;5.10;99.90
21417;DHT22;10869;52.238;10.716;2023-02-02T09:21:59;5.20;99.90
21417;DHT22;10869;52.238;10.716;2023-02-02T09:24:25;5.20;99.90
21417;DHT22;10869;52.238;10.716;2023-02-02T09:26:50;5.20;99.90
21417;DHT22;10869;52.238;10.716;2023-02-02T09:29:16;5.20;99.90
21417;DHT22;10869;52.238;10.716;2023-02-02T09:31:42;5.20;99.90
21417;DHT22;10869;52.238;10.716;2023-02-02T09:34:10;5.30;99.90
21417;DHT22;10869;52.238;10.716;2023-02-02T09:36:41;5.30;99.90
21417;DHT22;10869;52.238;10.716;2023-02-02T09:39:08;5.30;99.90
21417;DHT22;10869;52.238;10.716;2023-02-02T09:41:57;5.40;99.90
21417;DHT22;10869;52.238;10.716;2023-02-02T09:47:31;5.40;99.90
21417;DHT22;10869;52.238;10.716;2023-02-02T09:52:54;5.30;99.90
21417;DHT22;10869;52.238;10.716;2023-02-02T09:55:43;5.40;99.90
21417;DHT22;10869;52.238;10.716;2023-02-02T10:12:05;5.70;99.90
21417;DHT22;10869;52.238;10.716;2023-02-02T10:14:50;5.70;99.90
21417;DHT22;10869;52.238;10.716;2023-02-02T10:22:38;5.80;99.90
21417;DHT22;10869;52.238;10.716;2023-02-02T10:25:07;5.80;99.90
21417;DHT22;10869;52.238;10.716;2023-02-02T10:27:38;5.90;99.90
21417;DHT22;10869;52.238;10.716;2023-02-02T10:30:28;5.90;99.90
21417;DHT22;10869;52.238;10.716;2023-02-02T10:33:09;5.80;99.90
21417;DHT22;10869;52.238;10.716;2023-02-02T10:35:45;5.80;99.90
21417;DHT22;10869;52.238;10.716;2023-02-02T10:38:39;5.70;99.90
21417;DHT22;10869;52.238;10.716;2023-02-02T10:44:48;5.40;99.90
21417;DHT22;10869;52.238;10.716;2023-02-02T10:46:55;5.20;99.90
21417;DHT22;10869;52.238;10.716;2023-02-02T10:49:34;5.10;99.90
21417;DHT22;10869;52.238;10.716;2023-02-02T11:00:56;5.70;99.90
21417;DHT22;10869;52.238;10.716;2023-02-02T11:03:32;5.70;99.90
21417;DHT22;10869;52.238;10.716;2023-02-02T11:06:01;5.70;99.90
21417;DHT22;10869;52.238;10.716;2023-02-02T11:08:50;5.80;99.90
21417;DHT22;10869;52.238;10.716;2023-02-02T11:11:39;6.00;99.90
21417;DHT22;10869;52.238;10.716;2023-02-02T11:22:35;6.80;99.90
21417;DHT22;10869;52.238;10.716;2023-02-02T11:28:27;7.20;99.90
21417;DHT22;10869;52.238;10.716;2023-02-02T11:30:56;7.60;99.90
21417;DHT22;10869;52.238;10.716;2023-02-02T11:33:30;7.60;99.90
21417;DHT22;10869;52.238;10.716;2023-02-02T11:36:03;7.60;99.90
21417;DHT22;10869;52.238;10.716;2023-02-02T11:38:29;7.40;99.90
21417;DHT22;10869;52.238;10.716;2023-02-02T11:41:03;7.30;99.90
21417;DHT22;10869;52.238;10.716;2023-02-02T11:43:50;7.30;99.90
21417;DHT22;10869;52.238;10.716;2023-02-02T11:46:23;7.10;99.90
21417;DHT22;10869;52.238;10.716;2023-02-02T11:49:14;6.90;99.90
21417;DHT22;10869;52.238;10.716;2023-02-02T12:04:49;5.90;99.90
21417;DHT22;10869;52.238;10.716;2023-02-02T12:07:31;6.10;99.90
21417;DHT22;10869;52.238;10.716;2023-02-02T12:10:29;6.30;99.90
21417;DHT22;10869;52.238;10.716;2023-02-02T12:21:05;6.60;99.90
21417;DHT22;10869;52.238;10.716;2023-02-02T12:51:04;6.00;99.90
21417;DHT22;10869;52.238;10.716;2023-02-02T13:02:59;5.60;99.90
21417;DHT22;10869;52.238;10.716;2023-02-02T13:09:10;5.70;99.90
21417;DHT22;10869;52.238;10.716;2023-02-02T13:15:12;6.00;99.90
21417;DHT22;10869;52.238;10.716;2023-02-02T13:20:44;6.40;99.90
21417;DHT22;10869;52.238;10.716;2023-02-02T13:23:22;6.60;99.90
21417;DHT22;10869;52.238;10.716;2023-02-02T13:26:02;6.80;99.90
21417;DHT22;10869;52.238;10.716;2023-02-02T13:31:00;6.80;99.90
21417;DHT22;10869;52.238;10.716;2023-02-02T13:33:31;6.90;99.90
21417;DHT22;10869;52.238;10.716;2023-02-02T13:36:05;7.00;99.90
21417;DHT22;10869;52.238;10.716;2023-02-02T13:38:33;7.20;99.90
21417;DHT22;10869;52.238;10.716;2023-02-02T13:41:06;7.10;99.90
21417;DHT22;10869;52.238;10.716;2023-02-02T13:43:38;7.00;99.90
21417;DHT22;10869;52.238;10.716;2023-02-02T13:49:19;6.70;99.90
21417;DHT22;10869;52.238;10.716;2023-02-02T14:00:29;5.90;99.90
21417;DHT22;10869;52.238;10.716;2023-02-02T14:03:00;5.90;99.90
21417;DHT22;10869;52.238;10.716;2023-02-02T14:05:38;5.90;99.90
21417;DHT22;10869;52.238;10.716;2023-02-02T14:11:36;5.80;99.90
21417;DHT22;10869;52.238;10.716;2023-02-02T14:14:15;5.80;99.90
21417;DHT22;10869;52.238;10.716;2023-02-02T14:19:50;5.80;99.90
21417;DHT22;10869;52.238;10.716;2023-02-02T14:22:23;5.80;99.90
21417;DHT22;10869;52.238;10.716;2023-02-02T14:28:59;6.10;99.90
21417;DHT22;10869;52.238;10.716;2023-02-02T14:31:39;6.30;99.90
21417;DHT22;10869;52.238;10.716;2023-02-02T14:34:29;6.50;99.90
21417;DHT22;10869;52.238;10.716;2023-02-02T14:55:59;6.20;99.90
21417;DHT22;10869;52.238;10.716;2023-02-02T14:59:11;6.20;99.90
21417;DHT22;10869;52.238;10.716;2023-02-02T15:01:42;6.20;99.90
21417;DHT22;10869;52.238;10.716;2023-02-02T15:13:28;6.00;99.90
21417;DHT22;10869;52.238;10.716;2023-02-02T15:16:28;5.90;99.90
21417;DHT22;10869;52.238;10.716;2023-02-02T15:19:05;5.80;99.90
21417;DHT22;10869;52.238;10.716;2023-02-02T15:21:33;5.80;99.90
21417;DHT22;10869;52.238;10.716;2023-02-02T15:24:04;5.80;99.90
21417;DHT22;10869;52.238;10.716;2023-02-02T15:26:36;5.70;99.90
21417;DHT22;10869;52.238;10.716;2023-02-02T15:43:09;5.40;99.90
21417;DHT22;10869;52.238;10.716;2023-02-02T15:49:29;5.40;99.90
21417;DHT22;10869;52.238;10.716;2023-02-02T16:02:42;5.20;99.90
21417;DHT22;10869;52.238;10.716;2023-02-02T16:08:31;5.10;99.90
21417;DHT22;10869;52.238;10.716;2023-02-02T16:11:18;5.10;99.90
21417;DHT22;10869;52.238;10.716;2023-02-02T16:14:00;5.10;99.90
21417;DHT22;10869;52.238;10.716;2023-02-02T16:16:32;5.10;99.90
21417;DHT22;10869;52.238;10.716;2023-02-02T16:22:23;5.00;99.90
21417;DHT22;10869;52.238;10.716;2023-02-02T16:28:13;5.00;99.90
21417;DHT22;10869;52.238;10.716;2023-02-02T16:34:13;4.90;99.90
21417;DHT22;10869;52.238;10.716;2023-02-02T16:40:59;4.80;99.90
21417;DHT22;10869;52.238;10.716;2023-02-02T16:43:20;4.70;99.90
21417;DHT22;10869;52.238;10.716;2023-02-02T16:55:28;4.30;99.90
21417;DHT22;10869;52.238;10.716;2023-02-02T17:01:12;4.10;99.90
21417;DHT22;10869;52.238;10.716;2023-02-02T17:03:45;4.00;99.90
21417;DHT22;10869;52.238;10.716;2023-02-02T17:06:12;4.00;99.90
21417;DHT22;10869;52.238;10.716;2023-02-02T17:08:39;4.00;99.90
21417;DHT22;10869;52.238;10.716;2023-02-02T17:15:58;3.90;99.90
21417;DHT22;10869;52.238;10.716;2023-02-02T17:18:24;3.90;99.90
21417;DHT22;10869;52.238;10.716;2023-02-02T17:20:52;3.90;99.90
21417;DHT22;10869;52.238;10.716;2023-02-02T17:23:24;3.90;99.90
21417;DHT22;10869;52.238;10.716;2023-02-02T17:25:51;3.90;99.90
21417;DHT22;10869;52.238;10.716;2023-02-02T17:28:25;3.90;99.90
21417;DHT22;10869;52.238;10.716;2023-02-02T17:30:59;3.90;99.90
21417;DHT22;10869;52.238;10.716;2023-02-02T17:33:32;3.90;99.90
21417;DHT22;10869;52.238;10.716;2023-02-02T17:36:06;3.90;99.90
21417;DHT22;10869;52.238;10.716;2023-02-02T17:38:32;4.00;99.90
21417;DHT22;10869;52.238;10.716;2023-02-02T17:41:00;4.00;99.90
21417;DHT22;10869;52.238;10.716;2023-02-02T17:43:26;4.00;99.90
21417;DHT22;10869;52.238;10.716;2023-02-02T17:46:01;4.00;99.90
21417;DHT22;10869;52.238;10.716;2023-02-02T17:55:20;4.00;99.90
21417;DHT22;10869;52.238;10.716;2023-02-02T17:57:50;4.00;99.90
21417;DHT22;10869;52.238;10.716;2023-02-02T18:00:18;4.00;99.90
21417;DHT22;10869;52.238;10.716;2023-02-02T18:06:09;4.00;99.90
21417;DHT22;10869;52.238;10.716;2023-02-02T18:11:39;4.00;99.90
21417;DHT22;10869;52.238;10.716;2023-02-02T18:14:05;4.00;99.90
21417;DHT22;10869;52.238;10.716;2023-02-02T18:16:31;4.00;99.90
21417;DHT22;10869;52.238;10.716;2023-02-02T18:18:57;4.00;99.90
21417;DHT22;10869;52.238;10.716;2023-02-02T18:24:45;4.10;99.90
21417;DHT22;10869;52.238;10.716;2023-02-02T18:27:10;4.10;99.90
21417;DHT22;10869;52.238;10.716;2023-02-02T18:29:36;4.10;99.90
21417;DHT22;10869;52.238;10.716;2023-02-02T18:32:02;4.10;99.90
21417;DHT22;10869;52.238;10.716;2023-02-02T18:34:33;4.10;99.90
21417;DHT22;10869;52.238;10.716;2023-02-02T18:40:21;4.10;99.90
21417;DHT22;10869;52.238;10.716;2023-02-02T18:42:47;4.10;99.90
21417;DHT22;10869;52.238;10.716;2023-02-02T18:45:13;4.10;99.90
21417;DHT22;10869;52.238;10.716;2023-02-02T18:47:38;4.10;99.90
21417;DHT22;10869;52.238;10.716;2023-02-02T18:50:05;4.10;99.90
21417;DHT22;10869;52.238;10.716;2023-02-02T18:52:32;4.10;99.90
21417;DHT22;10869;52.238;10.716;2023-02-02T18:54:58;4.10;99.90
21417;DHT22;10869;52.238;10.716;2023-02-02T18:57:23;4.10;99.90
21417;DHT22;10869;52.238;10.716;2023-02-02T19:03:11;4.10;99.90
21417;DHT22;10869;52.238;10.716;2023-02-02T19:05:37;4.10;99.90
21417;DHT22;10869;52.238;10.716;2023-02-02T19:08:22;4.10;99.90
21417;DHT22;10869;52.238;10.716;2023-02-02T19:14:21;4.00;99.90
21417;DHT22;10869;52.238;10.716;2023-02-02T19:20:27;4.00;99.90
21417;DHT22;10869;52.238;10.716;2023-02-02T19:23:20;4.00;99.90
21417;DHT22;10869;52.238;10.716;2023-02-02T19:25:51;4.00;99.90
21417;DHT22;10869;52.238;10.716;2023-02-02T19:31:42;4.00;99.90
21417;DHT22;10869;52.238;10.716;2023-02-02T19:37:37;3.90;99.90
21417;DHT22;10869;52.238;10.716;2023-02-02T19:43:27;3.90;99.90
21417;DHT22;10869;52.238;10.716;2023-02-02T19:49:24;3.90;99.90
21417;DHT22;10869;52.238;10.716;2023-02-02T19:55:22;3.90;99.90
21417;DHT22;10869;52.238;10.716;2023-02-02T19:58:00;3.90;99.90
21417;DHT22;10869;52.238;10.716;2023-02-02T20:00:34;3.90;99.90
21417;DHT22;10869;52.238;10.716;2023-02-02T20:06:25;3.90;99.90
21417;DHT22;10869;52.238;10.716;2023-02-02T20:12:27;3.80;99.90
21417;DHT22;10869;52.238;10.716;2023-02-02T20:18:44;3.80;99.90
21417;DHT22;10869;52.238;10.716;2023-02-02T20:24:38;3.70;99.90
21417;DHT22;10869;52.238;10.716;2023-02-02T20:30:29;3.70;99.90
21417;DHT22;10869;52.238;10.716;2023-02-02T20:36:39;3.60;99.90
21417;DHT22;10869;52.238;10.716;2023-02-02T20:39:41;3.60;99.90
21417;DHT22;10869;52.238;10.716;2023-02-02T20:42:09;3.60;99.90
21417;DHT22;10869;52.238;10.716;2023-02-02T20:44:35;3.50;99.90
21417;DHT22;10869;52.238;10.716;2023-02-02T20:47:02;3.50;99.90
21417;DHT22;10869;52.238;10.716;2023-02-02T20:52:49;3.50;99.90
21417;DHT22;10869;52.238;10.716;2023-02-02T20:58:38;3.50;99.90
21417;DHT22;10869;52.238;10.716;2023-02-02T21:01:04;3.50;99.90
21417;DHT22;10869;52.238;10.716;2023-02-02T21:06:52;3.40;99.90
21417;DHT22;10869;52.238;10.716;2023-02-02T21:09:19;3.40;99.90
21417;DHT22;10869;52.238;10.716;2023-02-02T21:15:08;3.40;99.90
21417;DHT22;10869;52.238;10.716;2023-02-02T21:20:16;3.40;99.90
21417;DHT22;10869;52.238;10.716;2023-02-02T21:22:42;3.30;99.90
21417;DHT22;10869;52.238;10.716;2023-02-02T21:25:09;3.30;99.90
21417;DHT22;10869;52.238;10.716;2023-02-02T21:27:35;3.30;99.90
21417;DHT22;10869;52.238;10.716;2023-02-02T21:30:03;3.30;99.90
21417;DHT22;10869;52.238;10.716;2023-02-02T21:32:29;3.30;99.90
21417;DHT22;10869;52.238;10.716;2023-02-02T21:34:55;3.30;99.90
21417;DHT22;10869;52.238;10.716;2023-02-02T21:37:21;3.30;99.90
21417;DHT22;10869;52.238;10.716;2023-02-02T21:39:46;3.20;99.90
21417;DHT22;10869;52.238;10.716;2023-02-02T21:42:17;3.30;99.90
21417;DHT22;10869;52.238;10.716;2023-02-02T21:45:23;3.30;99.90
21417;DHT22;10869;52.238;10.716;2023-02-02T21:47:53;3.30;99.90
21417;DHT22;10869;52.238;10.716;2023-02-02T21:50:26;3.30;99.90
21417;DHT22;10869;52.238;10.716;2023-02-02T21:53:11;3.30;99.90
21417;DHT22;10869;52.238;10.716;2023-02-02T21:55:39;3.30;99.90
21417;DHT22;10869;52.238;10.716;2023-02-02T21:58:23;3.30;99.90
21417;DHT22;10869;52.238;10.716;2023-02-02T22:00:55;3.30;99.90
21417;DHT22;10869;52.238;10.716;2023-02-02T22:03:33;3.30;99.90
21417;DHT22;10869;52.238;10.716;2023-02-02T22:08:47;3.30;99.90
21417;DHT22;10869;52.238;10.716;2023-02-02T22:11:28;3.30;99.90
21417;DHT22;10869;52.238;10.716;2023-02-02T22:14:13;3.30;99.90
21417;DHT22;10869;52.238;10.716;2023-02-02T22:16:44;3.30;99.90
21417;DHT22;10869;52.238;10.716;2023-02-02T22:19:30;3.30;99.90
21417;DHT22;10869;52.238;10.716;2023-02-02T22:22:20;3.30;99.90
21417;DHT22;10869;52.238;10.716;2023-02-02T22:24:59;3.30;99.90
21417;DHT22;10869;52.238;10.716;2023-02-02T22:27:44;3.30;99.90
21417;DHT22;10869;52.238;10.716;2023-02-02T22:30:27;3.30;99.90
21417;DHT22;10869;52.238;10.716;2023-02-02T22:32:54;3.40;99.90
21417;DHT22;10869;52.238;10.716;2023-02-02T22:35:21;3.40;99.90
21417;DHT22;10869;52.238;10.716;2023-02-02T22:37:48;3.40;99.90
21417;DHT22;10869;52.238;10.716;2023-02-02T22:40:13;3.50;99.90
21417;DHT22;10869;52.238;10.716;2023-02-02T22:42:41;3.50;99.90
21417;DHT22;10869;52.238;10.716;2023-02-02T22:45:07;3.50;99.90
21417;DHT22;10869;52.238;10.716;2023-02-02T22:47:33;3.60;99.90
21417;DHT22;10869;52.238;10.716;2023-02-02T22:49:59;3.60;99.90
21417;DHT22;10869;52.238;10.716;2023-02-02T22:52:25;3.60;99.90
21417;DHT22;10869;52.238;10.716;2023-02-02T22:54:51;3.60;99.90
21417;DHT22;10869;52.238;10.716;2023-02-02T22:57:17;3.60;99.90
21417;DHT22;10869;52.238;10.716;2023-02-02T22:59:43;3.60;99.90
21417;DHT22;10869;52.238;10.716;2023-02-02T23:02:09;3.70;99.90
21417;DHT22;10869;52.238;10.716;2023-02-02T23:04:35;3.70;99.90
21417;DHT22;10869;52.238;10.716;2023-02-02T23:07:01;3.70;99.90
21417;DHT22;10869;52.238;10.716;2023-02-02T23:09:27;3.70;99.90
21417;DHT22;10869;52.238;10.716;2023-02-02T23:11:52;3.70;99.90
21417;DHT22;10869;52.238;10.716;2023-02-02T23:14:18;3.70;99.90
21417;DHT22;10869;52.238;10.716;2023-02-02T23:16:44;3.80;99.90
21417;DHT22;10869;52.238;10.716;2023-02-02T23:19:10;3.80;99.90
21417;DHT22;10869;52.238;10.716;2023-02-02T23:21:36;3.80;99.90
21417;DHT22;10869;52.238;10.716;2023-02-02T23:24:02;3.80;99.90
21417;DHT22;10869;52.238;10.716;2023-02-02T23:26:27;3.80;99.90
21417;DHT22;10869;52.238;10.716;2023-02-02T23:28:53;3.80;99.90
21417;DHT22;10869;52.238;10.716;2023-02-02T23:31:19;3.80;99.90
21417;DHT22;10869;52.238;10.716;2023-02-02T23:33:45;3.90;99.90
21417;DHT22;10869;52.238;10.716;2023-02-02T23:36:11;3.90;99.90
21417;DHT22;10869;52.238;10.716;2023-02-02T23:38:36;3.90;99.90
21417;DHT22;10869;52.238;10.716;2023-02-02T23:41:02;3.90;99.90
21417;DHT22;10869;52.238;10.716;2023-02-02T23:43:28;3.90;99.90
21417;DHT22;10869;52.238;10.716;2023-02-02T23:45:54;3.90;99.90
21417;DHT22;10869;52.238;10.716;2023-02-02T23:48:20;4.00;99.90
21417;DHT22;10869;52.238;10.716;2023-02-02T23:50:46;3.90;99.90
21417;DHT22;10869;52.238;10.716;2023-02-02T23:53:13;4.00;99.90
21417;DHT22;10869;52.238;10.716;2023-02-02T23:55:43;4.00;99.90
21417;DHT22;10869;52.238;10.716;2023-02-02T23:58:11;4.00;99.90
